METAR Data
IDs: Format: Raw Decoded Include TAF

Data at: 0147 UTC 24 Sep 2018

KHDN 240056Z AUTO 24009KT 10SM CLR 22/M03 A3003 RMK AO2 SLP104 T02171033
KHDN 232356Z AUTO 25014G19KT 10SM CLR 23/M03 A3003 RMK AO2 PK WND 23030/2317 SLP103 T02281028 10261 20228 56008
KHDN 232256Z AUTO 24016G21KT 10SM BKN100 23/M02 A3003 RMK AO2 PK WND 23034/2222 SLP101 T02331017
KHDN 232156Z AUTO 24019G28KT 10SM FEW100 24/M02 A3004 RMK AO2 PK WND 26028/2150 SLP101 T02441022
KHDN 232056Z AUTO 23015G29KT 10SM SCT110 24/M02 A3006 RMK AO2 PK WND 22030/2025 SLP107 T02441022 56024
KHDN 231956Z AUTO 24010KT 10SM SCT110 25/M02 A3009 RMK AO2 PK WND 26029/1926 SLP110 T02501022
KHDN 231856Z AUTO 23014G24KT 10SM SCT100 25/M03 A3011 RMK AO2 SLP119 T02501028
KHDN 231756Z AUTO VRB05G14KT 10SM SCT100 23/M02 A3015 RMK AO2 SLP133 T02281022 10233 20078 58016
KHDN 231656Z AUTO VRB05KT 10SM FEW110 20/M03 A3018 RMK AO2 SLP148 T02001033
KHDN 231556Z AUTO 10008KT 10SM FEW110 17/M06 A3020 RMK AO2 SLP161 T01671056
KHDN 231456Z AUTO 11007KT 10SM OVC110 12/M07 A3020 RMK AO2 SLP174 T01221067 53006
KHDN 231356Z AUTO 11008KT 10SM OVC110 10/M07 A3020 RMK AO2 SLP171 T01001072
KHDN 231256Z AUTO 10012KT 10SM CLR 08/M08 A3019 RMK AO2 SLP159 T00781078
KHDN 231156Z AUTO 12011KT 10SM OVC110 08/M08 A3018 RMK AO2 SLP150 T00831083 10133 20083 55002
KHDN 231056Z AUTO 11013KT 10SM CLR 09/M09 A3018 RMK AO2 SLP148 T00891089
KHDN 230956Z AUTO 10012KT 10SM CLR 09/M09 A3018 RMK AO2 SLP146 T00891089
KHDN 230756Z AUTO 10011KT 10SM CLR 11/M09 A3020 RMK AO2 SLP148 T01111094
KHDN 230656Z AUTO 10008KT 10SM CLR 11/M10 A3020 RMK AO2 SLP151 T01111100
KHDN 230556Z AUTO 08006KT 10SM CLR 13/M09 A3020 RMK AO2 SLP153 T01281094 10250 20128 402610044 58001
KHDN 230456Z AUTO 07006KT 10SM CLR 14/M10 A3021 RMK AO2 SLP159 T01391100
KHDN 230356Z AUTO 05005KT 10SM CLR 15/M11 A3021 RMK AO2 SLP168 T01501111
KHDN 230256Z AUTO 00000KT 10SM CLR 14/M11 A3021 RMK AO2 SLP180 T01441106 53010
KHDN 230156Z AUTO 19005KT 10SM CLR 17/M11 A3019 RMK AO2 SLP177 T01671111
KHDN 230056Z AUTO 24012KT 10SM CLR 22/M11 A3018 RMK AO2 SLP165 T02171106
KHDN 222356Z AUTO 25014KT 10SM CLR 25/M09 A3017 RMK AO2 SLP154 T02501089 10261 20217 56012
KHDN 222256Z AUTO 28012KT 10SM CLR 26/M09 A3017 RMK AO2 SLP151 T02561089
KHDN 222156Z AUTO 00000KT 10SM CLR 26/M10 A3018 RMK AO2 SLP154 T02561100
KHDN 222056Z AUTO 30010G18KT 10SM CLR 26/M11 A3021 RMK AO2 SLP164 T02561106 56025
KHDN 221956Z AUTO 28012G20KT 10SM CLR 25/M10 A3024 RMK AO2 SLP171 T02501100
KHDN 221856Z AUTO 29009G18KT 10SM CLR 24/M10 A3027 RMK AO2 SLP185 T02391100
KHDN 221756Z AUTO VRB04KT 10SM CLR 22/M09 A3030 RMK AO2 SLP193 T02221089 10222 20044 58011
KHDN 221656Z AUTO 10006KT 10SM CLR 19/M08 A3033 RMK AO2 SLP207 T01891083
KHDN 221556Z AUTO 12010KT 10SM CLR 14/M09 A3034 RMK AO2 SLP219 T01441094
KHDN 221456Z AUTO 10013KT 10SM CLR 09/M09 A3034 RMK AO2 SLP229 T00941094 50002
KHDN 221356Z AUTO 10011KT 10SM CLR 07/M10 A3035 RMK AO2 SLP230 T00671100